createdAt,value
2023-04-14T00:02:11.951Z,21.20
2023-04-14T00:04:44.950Z,21.20
2023-04-14T00:07:18.211Z,21.20
2023-04-14T00:09:51.314Z,21.20
2023-04-14T00:12:24.360Z,21.30
2023-04-14T00:14:57.366Z,21.30
2023-04-14T00:17:30.219Z,21.30
2023-04-14T00:20:02.972Z,21.30
2023-04-14T00:22:35.977Z,21.30
2023-04-14T00:25:09.191Z,21.30
2023-04-14T00:27:44.437Z,21.30
2023-04-14T00:30:16.876Z,21.30
2023-04-14T00:32:50.294Z,21.30
2023-04-14T00:35:23.703Z,21.30
2023-04-14T00:37:57.694Z,21.30
2023-04-14T00:40:49.303Z,21.30
2023-04-14T00:46:19.230Z,21.30
2023-04-14T00:48:53.485Z,21.20
2023-04-14T00:51:26.950Z,21.20
2023-04-14T00:54:00.517Z,21.20
2023-04-14T00:56:33.515Z,21.20
2023-04-14T00:59:06.769Z,21.20
2023-04-14T01:01:39.951Z,21.20
2023-04-14T01:04:13.381Z,21.20
2023-04-14T01:06:46.844Z,21.20
2023-04-14T01:09:20.578Z,21.20
2023-04-14T01:11:59.050Z,21.20
2023-04-14T01:14:48.837Z,21.20
2023-04-14T01:17:38.662Z,21.10
2023-04-14T01:20:30.473Z,21.10
2023-04-14T01:23:05.506Z,21.00
2023-04-14T01:26:03.706Z,21.00
2023-04-14T01:29:03.119Z,21.00
2023-04-14T01:31:38.200Z,20.90
2023-04-14T01:34:27.517Z,20.90
2023-04-14T01:37:02.360Z,20.90
2023-04-14T01:39:36.901Z,20.80
2023-04-14T01:42:11.541Z,20.70
2023-04-14T01:44:46.539Z,20.70
2023-04-14T01:47:20.623Z,20.70
2023-04-14T01:49:55.706Z,20.60
2023-04-14T01:52:30.156Z,20.60
2023-04-14T01:55:06.221Z,20.60
2023-04-14T01:57:43.479Z,20.60
2023-04-14T02:00:17.916Z,20.60
2023-04-14T02:02:52.816Z,20.60
2023-04-14T02:05:27.447Z,20.60
2023-04-14T02:08:01.091Z,20.60
2023-04-14T02:10:34.980Z,20.60
2023-04-14T02:13:09.526Z,20.60
2023-04-14T02:15:43.130Z,20.60
2023-04-14T02:18:16.679Z,20.60
2023-04-14T02:20:50.768Z,20.70
2023-04-14T02:23:23.594Z,20.60
2023-04-14T02:26:01.298Z,20.60
2023-04-14T02:28:36.499Z,20.60
2023-04-14T02:31:11.282Z,20.50
2023-04-14T02:33:44.946Z,20.50
2023-04-14T02:36:22.551Z,20.50
2023-04-14T02:39:01.087Z,20.40
2023-04-14T02:41:36.441Z,20.40
2023-04-14T02:44:23.230Z,20.40
2023-04-14T02:47:05.124Z,20.30
2023-04-14T02:49:45.787Z,20.30
2023-04-14T02:52:20.400Z,20.30
2023-04-14T02:54:55.561Z,20.30
2023-04-14T02:57:29.008Z,20.30
2023-04-14T03:00:02.766Z,20.30
2023-04-14T03:02:36.479Z,20.30
2023-04-14T03:05:10.430Z,20.20
2023-04-14T03:07:46.022Z,20.20
2023-04-14T03:10:20.049Z,20.20
2023-04-14T03:12:54.181Z,20.20
2023-04-14T03:15:27.961Z,20.20
2023-04-14T03:18:02.691Z,20.20
2023-04-14T03:20:36.501Z,20.20
2023-04-14T03:23:11.012Z,20.20
2023-04-14T03:25:44.925Z,20.20
2023-04-14T03:28:20.543Z,20.20
2023-04-14T03:30:55.994Z,20.20
2023-04-14T03:33:31.141Z,20.20
2023-04-14T03:36:05.507Z,20.20
2023-04-14T03:38:40.342Z,20.20
2023-04-14T03:41:14.762Z,20.20
2023-04-14T03:43:49.251Z,20.20
2023-04-14T03:46:22.467Z,20.20
2023-04-14T03:49:00.985Z,20.20
2023-04-14T03:51:35.434Z,20.20
2023-04-14T03:54:10.205Z,20.10
2023-04-14T03:56:43.481Z,20.10
2023-04-14T03:59:18.407Z,20.10
2023-04-14T04:01:51.914Z,20.10
2023-04-14T04:04:27.361Z,20.10
2023-04-14T04:07:00.875Z,20.10
2023-04-14T04:09:37.261Z,20.10
2023-04-14T04:12:11.671Z,20.10
2023-04-14T04:14:44.950Z,20.00
2023-04-14T04:17:19.952Z,20.00
2023-04-14T04:19:53.408Z,20.00
2023-04-14T04:22:27.165Z,20.00
2023-04-14T04:25:01.171Z,20.00
2023-04-14T04:27:34.387Z,20.00
2023-04-14T04:30:09.301Z,20.00
2023-04-14T04:32:43.277Z,19.90
2023-04-14T04:35:16.404Z,20.00
2023-04-14T04:37:49.388Z,19.90
2023-04-14T04:40:22.377Z,19.90
2023-04-14T04:42:55.243Z,19.90
2023-04-14T04:45:33.050Z,19.80
2023-04-14T04:48:06.269Z,19.80
2023-04-14T04:50:39.423Z,19.80
2023-04-14T04:53:12.018Z,19.80
2023-04-14T04:55:45.776Z,19.80
2023-04-14T04:58:18.881Z,19.80
2023-04-14T05:00:51.712Z,19.80
2023-04-14T05:03:24.568Z,19.70
2023-04-14T05:06:01.652Z,19.70
2023-04-14T05:08:34.905Z,19.70
2023-04-14T05:11:08.847Z,19.70
2023-04-14T05:13:41.986Z,19.70
2023-04-14T05:16:19.441Z,19.70
2023-04-14T05:18:52.529Z,19.70
2023-04-14T05:21:25.538Z,19.70
2023-04-14T05:23:58.071Z,19.60
2023-04-14T05:26:51.896Z,19.60
2023-04-14T05:29:04.716Z,19.60
2023-04-14T05:31:37.765Z,19.60
2023-04-14T05:34:11.632Z,19.50
2023-04-14T05:36:45.109Z,19.50
2023-04-14T05:39:18.265Z,19.50
2023-04-14T05:41:51.794Z,19.50
2023-04-14T05:44:26.085Z,19.50
2023-04-14T05:46:59.857Z,19.50
2023-04-14T05:49:37.671Z,19.50
2023-04-14T05:52:17.559Z,19.50
2023-04-14T05:54:51.176Z,19.40
2023-04-14T05:57:24.744Z,19.40
2023-04-14T05:59:58.839Z,19.40
2023-04-14T06:02:32.152Z,19.40
2023-04-14T06:05:06.970Z,19.30
2023-04-14T06:07:40.362Z,19.30
2023-04-14T06:10:16.779Z,19.30
2023-04-14T06:12:53.273Z,19.20
2023-04-14T06:15:27.639Z,19.20
2023-04-14T06:18:03.440Z,19.10
2023-04-14T06:20:36.705Z,19.10
2023-04-14T06:23:09.653Z,19.10
2023-04-14T06:25:42.657Z,19.10
2023-04-14T06:28:15.463Z,19.10
2023-04-14T06:30:48.438Z,19.10
2023-04-14T06:33:21.418Z,19.10
2023-04-14T06:36:04.543Z,19.00
2023-04-14T06:38:37.391Z,19.00
2023-04-14T06:41:11.148Z,19.00
2023-04-14T06:43:44.679Z,19.00
2023-04-14T06:46:17.745Z,19.00
2023-04-14T06:48:50.504Z,19.00
2023-04-14T06:51:23.666Z,19.00
2023-04-14T06:53:56.741Z,19.00
2023-04-14T06:56:29.831Z,19.00
2023-04-14T06:59:02.872Z,19.00
2023-04-14T07:01:35.931Z,19.00
2023-04-14T07:04:09.043Z,19.00
2023-04-14T07:06:41.871Z,19.00
2023-04-14T07:09:14.796Z,19.00
2023-04-14T07:11:48.418Z,19.00
2023-04-14T07:14:21.341Z,19.00
2023-04-14T07:16:54.567Z,19.00
2023-04-14T07:19:27.521Z,19.00
2023-04-14T07:22:00.786Z,19.00
2023-04-14T07:24:33.559Z,19.00
2023-04-14T07:27:06.854Z,19.00
2023-04-14T07:29:39.557Z,19.00
2023-04-14T07:32:13.610Z,19.00
2023-04-14T07:34:46.574Z,19.00
2023-04-14T07:37:24.324Z,19.00
2023-04-14T07:39:57.275Z,19.00
2023-04-14T07:42:30.710Z,19.00
2023-04-14T07:45:03.564Z,19.00
2023-04-14T07:47:36.505Z,19.00
2023-04-14T07:50:10.187Z,19.00
2023-04-14T07:52:43.073Z,19.00
2023-04-14T07:55:15.959Z,19.00
2023-04-14T07:57:49.006Z,19.00
2023-04-14T08:00:22.153Z,18.90
2023-04-14T08:02:59.305Z,18.90
2023-04-14T08:05:32.258Z,18.90
2023-04-14T08:08:05.629Z,19.00
2023-04-14T08:10:38.529Z,19.00
2023-04-14T08:13:11.300Z,18.90
2023-04-14T08:15:44.805Z,19.00
2023-04-14T08:18:17.938Z,18.90
2023-04-14T08:20:50.988Z,18.90
2023-04-14T08:23:24.432Z,18.90
2023-04-14T08:25:57.288Z,18.90
2023-04-14T08:28:31.746Z,18.90
2023-04-14T08:31:06.233Z,18.90
2023-04-14T08:33:39.101Z,18.90
2023-04-14T08:36:13.444Z,18.90
2023-04-14T08:38:46.267Z,18.90
2023-04-14T08:41:22.818Z,18.90
2023-04-14T08:43:56.229Z,18.90
2023-04-14T08:46:29.990Z,18.90
2023-04-14T08:49:10.181Z,18.80
2023-04-14T08:51:45.318Z,18.80
2023-04-14T08:54:18.817Z,18.80
2023-04-14T08:56:52.460Z,18.80
2023-04-14T08:59:25.392Z,18.80
2023-04-14T09:01:59.166Z,18.80
2023-04-14T09:04:33.079Z,18.80
2023-04-14T09:07:05.989Z,18.80
2023-04-14T09:09:38.855Z,18.80
2023-04-14T09:12:12.122Z,18.80
2023-04-14T09:14:46.235Z,18.80
2023-04-14T09:17:19.414Z,18.80
2023-04-14T09:20:34.963Z,18.80
2023-04-14T09:22:30.652Z,18.80
2023-04-14T09:25:03.696Z,18.80
2023-04-14T09:27:36.957Z,18.90
2023-04-14T09:30:11.518Z,18.90
2023-04-14T09:32:45.665Z,18.80
2023-04-14T09:35:18.608Z,18.80
2023-04-14T09:37:52.568Z,18.80
2023-04-14T09:40:32.830Z,18.80
2023-04-14T09:43:06.124Z,18.80
2023-04-14T09:45:48.333Z,18.80
2023-04-14T09:48:21.285Z,18.80
2023-04-14T09:51:14.993Z,18.80
2023-04-14T09:53:48.697Z,18.80
2023-04-14T09:56:21.818Z,18.80
2023-04-14T09:58:54.616Z,18.80
2023-04-14T10:01:28.517Z,18.90
2023-04-14T10:04:02.611Z,18.80
2023-04-14T10:06:35.554Z,18.80
2023-04-14T10:09:08.682Z,18.80
2023-04-14T10:11:42.034Z,18.80
2023-04-14T10:14:14.916Z,18.80
2023-04-14T10:16:52.778Z,18.80
2023-04-14T10:19:25.849Z,18.70
2023-04-14T10:21:59.218Z,18.70
2023-04-14T10:24:32.142Z,18.70
2023-04-14T10:27:06.784Z,18.70
2023-04-14T10:29:39.597Z,18.70
2023-04-14T10:32:14.980Z,18.70
2023-04-14T10:35:05.757Z,18.70
2023-04-14T10:37:39.031Z,18.70
2023-04-14T10:40:12.589Z,18.70
2023-04-14T10:42:58.339Z,18.70
2023-04-14T10:45:31.155Z,18.70
2023-04-14T10:48:04.150Z,18.70
2023-04-14T10:50:38.952Z,18.70
2023-04-14T10:53:12.074Z,18.70
2023-04-14T10:55:52.451Z,18.70
2023-04-14T10:58:25.740Z,18.70
2023-04-14T11:01:00.502Z,18.70
2023-04-14T11:03:38.240Z,18.70
2023-04-14T11:06:15.690Z,18.70
2023-04-14T11:08:50.576Z,18.70
2023-04-14T11:11:27.233Z,18.70
2023-04-14T11:14:05.162Z,18.70
2023-04-14T11:16:42.252Z,18.70
2023-04-14T11:19:23.265Z,18.70
2023-04-14T11:21:57.068Z,18.70
2023-04-14T11:24:31.736Z,18.70
2023-04-14T11:27:04.847Z,18.70
2023-04-14T11:29:37.854Z,18.70
2023-04-14T11:32:11.833Z,18.60
2023-04-14T11:34:44.478Z,18.70
2023-04-14T11:37:19.106Z,18.70
2023-04-14T11:39:52.780Z,18.70
2023-04-14T11:42:26.045Z,18.70
2023-04-14T11:45:06.193Z,18.70
2023-04-14T11:47:39.259Z,18.70
2023-04-14T11:50:13.577Z,18.70
2023-04-14T11:52:50.310Z,18.70
2023-04-14T11:55:24.644Z,18.70
2023-04-14T11:58:00.729Z,18.60
2023-04-14T12:00:33.818Z,18.60
2023-04-14T12:03:11.177Z,18.60
2023-04-14T12:05:44.399Z,18.60
2023-04-14T12:08:17.229Z,18.60
2023-04-14T12:10:50.293Z,18.60
2023-04-14T12:13:23.977Z,18.60
2023-04-14T12:15:57.132Z,18.60
2023-04-14T12:18:31.695Z,18.60
2023-04-14T12:21:08.774Z,18.60
2023-04-14T12:23:42.769Z,18.60
2023-04-14T12:26:16.307Z,18.50
2023-04-14T12:28:49.226Z,18.50
2023-04-14T12:31:24.680Z,18.50
2023-04-14T12:33:58.657Z,18.50
2023-04-14T12:36:48.194Z,18.50
2023-04-14T12:39:12.968Z,18.40
2023-04-14T12:41:46.373Z,18.40
2023-04-14T12:44:23.732Z,18.40
2023-04-14T12:46:59.996Z,18.30
2023-04-14T12:49:38.399Z,18.30
2023-04-14T12:52:11.648Z,18.30
2023-04-14T12:54:54.479Z,18.30
2023-04-14T12:57:27.419Z,18.30
2023-04-14T13:00:00.669Z,18.30
2023-04-14T13:02:37.397Z,18.30
2023-04-14T13:05:11.227Z,18.30
2023-04-14T13:07:48.834Z,18.30
2023-04-14T13:10:21.459Z,18.30
2023-04-14T13:12:54.770Z,18.20
2023-04-14T13:16:13.210Z,18.20
2023-04-14T13:18:02.111Z,18.20
2023-04-14T13:20:35.366Z,18.20
2023-04-14T13:23:08.985Z,18.20
2023-04-14T13:25:45.156Z,18.30
2023-04-14T13:28:18.083Z,18.30
2023-04-14T13:30:51.646Z,18.30
2023-04-14T13:33:24.755Z,18.30
2023-04-14T13:35:58.334Z,18.30
2023-04-14T13:38:31.245Z,18.30
2023-04-14T13:41:04.244Z,18.30
2023-04-14T13:43:37.085Z,18.30
2023-04-14T13:46:10.364Z,18.30
2023-04-14T13:48:43.379Z,18.30
2023-04-14T13:51:16.469Z,18.30
2023-04-14T13:53:49.485Z,18.30
2023-04-14T13:56:23.764Z,18.30
2023-04-14T13:59:00.279Z,18.30
2023-04-14T14:01:33.510Z,18.30
2023-04-14T14:04:06.757Z,18.30
2023-04-14T14:06:39.940Z,18.20
2023-04-14T14:09:13.025Z,18.20
2023-04-14T14:11:47.168Z,18.20
2023-04-14T14:14:25.063Z,18.20
2023-04-14T14:16:58.121Z,18.20
2023-04-14T14:19:31.142Z,18.20
2023-04-14T14:22:04.720Z,18.20
2023-04-14T14:24:38.593Z,18.20
2023-04-14T14:27:11.337Z,18.20
2023-04-14T14:29:44.540Z,18.10
2023-04-14T14:32:17.595Z,18.10
2023-04-14T14:34:50.503Z,18.10
2023-04-14T14:37:24.164Z,18.10
2023-04-14T14:39:56.978Z,18.10
2023-04-14T14:42:29.923Z,18.10
2023-04-14T14:45:02.913Z,18.10
2023-04-14T14:47:35.816Z,18.10
2023-04-14T14:50:09.039Z,18.10
2023-04-14T14:52:41.905Z,18.10
2023-04-14T14:55:15.089Z,18.10
2023-04-14T14:57:47.978Z,18.10
2023-04-14T15:00:21.269Z,18.10
2023-04-14T15:02:54.220Z,18.10
2023-04-14T15:05:27.056Z,18.10
2023-04-14T15:08:00.132Z,18.10
2023-04-14T15:10:32.993Z,18.10
2023-04-14T15:13:07.430Z,18.10
2023-04-14T15:15:40.528Z,18.10
2023-04-14T15:18:13.361Z,18.10
2023-04-14T15:20:46.706Z,18.10
2023-04-14T15:23:20.038Z,18.10
2023-04-14T15:25:53.356Z,18.10
2023-04-14T15:28:26.449Z,18.10
2023-04-14T15:30:59.272Z,18.10
2023-04-14T15:33:32.090Z,18.10
2023-04-14T15:36:04.977Z,18.10
2023-04-14T15:38:37.815Z,18.10
2023-04-14T15:41:15.083Z,18.10
2023-04-14T15:43:47.989Z,18.10
2023-04-14T15:46:20.597Z,18.10
2023-04-14T15:48:53.408Z,18.10
2023-04-14T15:51:26.357Z,18.10
2023-04-14T15:53:59.794Z,18.00
2023-04-14T15:56:33.350Z,18.00
2023-04-14T15:59:06.254Z,18.00
2023-04-14T16:01:39.119Z,18.00
2023-04-14T16:04:12.028Z,18.10
2023-04-14T16:06:46.159Z,18.00
2023-04-14T16:09:19.589Z,18.00
2023-04-14T16:11:53.192Z,18.00
2023-04-14T16:14:26.122Z,18.00
2023-04-14T16:17:03.210Z,18.00
2023-04-14T16:19:36.301Z,18.00
2023-04-14T16:22:09.147Z,18.00
2023-04-14T16:24:42.878Z,18.00
2023-04-14T16:27:15.492Z,18.00
2023-04-14T16:29:48.665Z,18.00
2023-04-14T16:32:21.635Z,18.00
2023-04-14T16:34:54.603Z,18.00
2023-04-14T16:37:28.318Z,18.00
2023-04-14T16:40:01.443Z,18.00
2023-04-14T16:42:34.308Z,18.00
2023-04-14T16:45:07.754Z,18.00
2023-04-14T16:47:40.751Z,18.00
2023-04-14T16:50:14.613Z,18.00
2023-04-14T16:52:47.743Z,17.90
2023-04-14T16:55:21.183Z,17.90
2023-04-14T16:57:54.055Z,17.90
2023-04-14T17:00:30.146Z,17.90
2023-04-14T17:03:03.651Z,17.80
2023-04-14T17:05:38.123Z,17.80
2023-04-14T17:08:12.213Z,17.80
2023-04-14T17:10:46.140Z,17.80
2023-04-14T17:13:19.444Z,17.80
2023-04-14T17:16:05.716Z,17.80
2023-04-14T17:18:27.379Z,17.80
2023-04-14T17:21:00.596Z,17.80
2023-04-14T17:23:34.177Z,17.70
2023-04-14T17:26:07.838Z,17.70
2023-04-14T17:28:40.854Z,17.80
2023-04-14T17:31:18.607Z,17.70
2023-04-14T17:33:51.582Z,17.70
2023-04-14T17:36:25.313Z,17.80
2023-04-14T17:38:58.206Z,17.70
2023-04-14T17:41:31.573Z,17.70
2023-04-14T17:44:04.904Z,17.70
2023-04-14T17:46:37.992Z,17.70
2023-04-14T17:49:11.348Z,17.70
2023-04-14T17:51:48.793Z,17.70
2023-04-14T17:54:21.903Z,17.70
2023-04-14T17:56:54.806Z,17.70
2023-04-14T17:59:27.753Z,17.70
2023-04-14T18:02:01.035Z,17.70
2023-04-14T18:04:34.040Z,17.70
2023-04-14T18:07:07.176Z,17.70
2023-04-14T18:09:40.290Z,17.70
2023-04-14T18:12:13.152Z,17.70
2023-04-14T18:14:46.563Z,17.70
2023-04-14T18:17:19.421Z,17.70
2023-04-14T18:19:52.234Z,17.70
2023-04-14T18:22:28.309Z,17.70
2023-04-14T18:25:01.613Z,17.70
2023-04-14T18:30:10.036Z,17.70
2023-04-14T18:32:43.270Z,17.70
2023-04-14T18:35:17.610Z,17.70
2023-04-14T18:37:50.622Z,17.70
2023-04-14T18:40:24.092Z,17.70
2023-04-14T18:42:58.763Z,17.70
2023-04-14T18:45:31.547Z,17.70
2023-04-14T18:48:07.123Z,17.70
2023-04-14T18:50:40.075Z,17.70
2023-04-14T18:53:13.328Z,17.70
2023-04-14T18:55:46.997Z,17.70
2023-04-14T18:58:20.941Z,17.70
2023-04-14T19:01:01.729Z,17.60
2023-04-14T19:03:34.758Z,17.60
2023-04-14T19:06:07.668Z,17.60
2023-04-14T19:08:43.418Z,17.60
2023-04-14T19:11:16.422Z,17.60
2023-04-14T19:13:49.584Z,17.60
2023-04-14T19:16:22.612Z,17.60
2023-04-14T19:19:01.491Z,17.60
2023-04-14T19:21:34.852Z,17.60
2023-04-14T19:24:07.915Z,17.60
2023-04-14T19:26:42.732Z,17.60
2023-04-14T19:29:16.291Z,17.60
2023-04-14T19:31:49.205Z,17.60
2023-04-14T19:34:22.154Z,17.60
2023-04-14T19:36:59.534Z,17.60
2023-04-14T19:39:32.514Z,17.60
2023-04-14T19:42:05.588Z,17.60
2023-04-14T19:44:38.521Z,17.60
2023-04-14T19:47:11.536Z,17.60
2023-04-14T19:49:47.680Z,17.60
2023-04-14T19:52:23.756Z,17.60
2023-04-14T19:55:07.493Z,17.60
2023-04-14T19:57:40.444Z,17.60
2023-04-14T20:00:14.085Z,17.60
2023-04-14T20:02:47.186Z,17.70
2023-04-14T20:05:20.139Z,17.70
2023-04-14T20:07:53.153Z,17.70
2023-04-14T20:10:26.104Z,17.70
2023-04-14T20:12:59.035Z,17.70
2023-04-14T20:15:32.060Z,17.70
2023-04-14T20:18:08.269Z,17.70
2023-04-14T20:20:44.888Z,17.70
2023-04-14T20:23:18.005Z,17.80
2023-04-14T20:25:54.818Z,17.80
2023-04-14T20:28:29.248Z,17.80
2023-04-14T20:31:02.801Z,17.80
2023-04-14T20:33:35.645Z,17.80
2023-04-14T20:36:09.103Z,17.80
2023-04-14T20:38:42.738Z,17.80
2023-04-14T20:41:20.287Z,17.90
2023-04-14T20:43:53.182Z,17.90
2023-04-14T20:46:26.074Z,17.90
2023-04-14T20:48:59.149Z,17.90
2023-04-14T20:51:32.251Z,17.90
2023-04-14T20:54:05.930Z,17.90
2023-04-14T20:56:41.449Z,18.00
2023-04-14T20:59:13.095Z,18.00
2023-04-14T21:01:46.319Z,18.00
2023-04-14T21:04:19.257Z,18.00
2023-04-14T21:06:52.421Z,18.00
2023-04-14T21:09:26.638Z,18.10
2023-04-14T21:12:15.517Z,18.10
2023-04-14T21:15:40.517Z,18.10
2023-04-14T21:17:12.552Z,18.10
2023-04-14T21:19:45.873Z,18.10
2023-04-14T21:22:18.799Z,18.10
2023-04-14T21:24:51.657Z,18.10
2023-04-14T21:27:24.598Z,18.10
2023-04-14T21:29:58.014Z,18.10
2023-04-14T21:32:30.891Z,18.10
2023-04-14T21:35:03.592Z,18.20
2023-04-14T21:37:36.544Z,18.20
2023-04-14T21:40:12.114Z,18.20
2023-04-14T21:42:45.058Z,18.20
2023-04-14T21:45:17.978Z,18.10
2023-04-14T21:47:50.980Z,18.10
2023-04-14T21:50:32.983Z,18.10
2023-04-14T21:53:06.616Z,18.10
2023-04-14T21:55:40.263Z,18.10
2023-04-14T21:58:13.477Z,18.10
2023-04-14T22:00:46.480Z,18.10
2023-04-14T22:03:22.207Z,18.10
2023-04-14T22:05:55.183Z,18.10
2023-04-14T22:08:28.024Z,18.10
2023-04-14T22:11:03.930Z,18.20
2023-04-14T22:13:36.874Z,18.20
2023-04-14T22:16:12.988Z,18.10
2023-04-14T22:20:23.890Z,18.20
2023-04-14T22:21:35.489Z,18.20
2023-04-14T22:24:11.587Z,18.10
2023-04-14T22:26:44.528Z,18.10
2023-04-14T22:29:17.797Z,18.20
2023-04-14T22:31:51.174Z,18.10
2023-04-14T22:34:24.079Z,18.20
2023-04-14T22:36:57.289Z,18.20
2023-04-14T22:39:30.475Z,18.20
2023-04-14T22:42:03.498Z,18.20
2023-04-14T22:44:36.536Z,18.20
2023-04-14T22:47:09.562Z,18.20
2023-04-14T22:49:46.242Z,18.20
2023-04-14T22:52:19.170Z,18.20
2023-04-14T22:54:54.877Z,18.20
2023-04-14T22:57:29.023Z,18.20
2023-04-14T23:00:01.820Z,18.30
2023-04-14T23:02:36.919Z,18.30
2023-04-14T23:05:11.378Z,18.30
2023-04-14T23:07:44.567Z,18.30
2023-04-14T23:10:19.389Z,18.40
2023-04-14T23:12:52.314Z,18.40
2023-04-14T23:15:25.156Z,18.40
2023-04-14T23:18:02.477Z,18.40
2023-04-14T23:20:34.827Z,18.40
2023-04-14T23:23:07.806Z,18.40
2023-04-14T23:25:40.570Z,18.40
2023-04-14T23:28:13.432Z,18.50
2023-04-14T23:30:46.867Z,18.50
2023-04-14T23:33:20.717Z,18.50
2023-04-14T23:35:53.820Z,18.50
2023-04-14T23:38:28.382Z,18.50
2023-04-14T23:41:01.991Z,18.50
2023-04-14T23:43:38.224Z,18.50
2023-04-14T23:46:11.183Z,18.50
2023-04-14T23:48:44.105Z,18.60
2023-04-14T23:51:20.385Z,18.60
2023-04-14T23:53:52.777Z,18.60
2023-04-14T23:56:26.011Z,18.60
2023-04-14T23:58:59.440Z,18.60
